Time;durP1;ratioP1;P1;durP2;ratioP2;P2;SDS_P1;SDS_P2;PMS_P1;PMS_P2;Temp;Humidity;BMP_temperature;BMP_pressure;BME280_temperature;BME280_humidity;BME280_pressure;Samples;Min_cycle;Max_cycle;Signal;HPM_P1;HPM_P2
2021/08/01 00:01:04;;;;;;;15.13;9.00;;;25.30;62.10;;;;;;5036586;28;20068;-73
2021/08/01 00:03:31;;;;;;;12.25;8.70;;;25.40;62.00;;;;;;5036289;28;20075;-71
2021/08/01 00:05:57;;;;;;;15.25;8.93;;;25.30;62.00;;;;;;5036282;28;20057;-71
2021/08/01 00:08:23;;;;;;;10.40;7.88;;;25.30;61.70;;;;;;5035983;28;20436;-71
2021/08/01 00:10:50;;;;;;;11.07;8.18;;;25.40;61.70;;;;;;5036170;28;20061;-71
2021/08/01 00:13:15;;;;;;;12.25;8.18;;;25.40;61.50;;;;;;5036134;28;20029;-71
2021/08/01 00:15:41;;;;;;;11.60;7.60;;;25.40;61.30;;;;;;5035880;28;20079;-71
2021/08/01 00:18:07;;;;;;;11.20;7.88;;;25.40;61.20;;;;;;5036365;28;20048;-72
2021/08/01 00:20:33;;;;;;;9.88;8.02;;;25.40;61.10;;;;;;5035633;28;20120;-72
2021/08/01 00:22:58;;;;;;;10.88;8.18;;;25.40;61.10;;;;;;5036067;28;20160;-71
2021/08/01 00:25:24;;;;;;;14.05;7.72;;;25.40;61.10;;;;;;5035746;28;20602;-72
2021/08/01 00:27:52;;;;;;;9.80;7.90;;;25.40;60.90;;;;;;5035871;28;20120;-72
2021/08/01 00:30:18;;;;;;;12.68;8.35;;;25.40;61.00;;;;;;5034915;28;20463;-71
2021/08/01 00:32:44;;;;;;;10.80;7.85;;;25.40;61.10;;;;;;5035817;28;20101;-72
2021/08/01 00:35:10;;;;;;;15.60;8.65;;;25.40;61.00;;;;;;5035667;28;20367;-72
2021/08/01 00:37:36;;;;;;;16.73;9.57;;;25.40;61.00;;;;;;5035740;28;20034;-71
2021/08/01 00:40:02;;;;;;;10.45;8.05;;;25.40;61.20;;;;;;5035718;28;20040;-72
2021/08/01 00:42:28;;;;;;;13.80;8.30;;;25.30;61.50;;;;;;5035761;28;20033;-72
2021/08/01 00:44:53;;;;;;;10.23;8.70;;;25.20;61.60;;;;;;5035515;28;20375;-72
2021/08/01 00:47:19;;;;;;;9.80;8.43;;;25.10;61.80;;;;;;5035183;28;20033;-71
2021/08/01 00:49:45;;;;;;;15.02;8.52;;;25.10;62.00;;;;;;5035123;28;20022;-72
2021/08/01 00:52:11;;;;;;;10.35;8.25;;;25.00;62.00;;;;;;5035099;28;20029;-73
2021/08/01 00:54:37;;;;;;;14.73;8.25;;;25.00;62.20;;;;;;5033962;28;20160;-73
2021/08/01 00:57:06;;;;;;;9.65;8.48;;;24.90;62.40;;;;;;5035802;28;20045;-74
2021/08/01 00:59:33;;;;;;;11.13;8.40;;;24.90;62.40;;;;;;5035711;28;20028;-73
2021/08/01 01:02:20;;;;;;;10.57;8.05;;;24.80;62.60;;;;;;5035067;28;20081;-73
2021/08/01 01:04:58;;;;;;;13.85;8.73;;;24.80;62.60;;;;;;5035488;28;20025;-73
2021/08/01 01:07:27;;;;;;;14.30;8.50;;;24.70;62.60;;;;;;5035729;28;20029;-73
2021/08/01 01:10:04;;;;;;;13.07;9.23;;;24.70;62.60;;;;;;5035137;28;20113;-73
2021/08/01 01:12:37;;;;;;;10.20;8.63;;;24.70;62.60;;;;;;5035088;28;20025;-71
2021/08/01 01:15:11;;;;;;;15.27;9.07;;;24.60;62.60;;;;;;5034681;28;20503;-72
2021/08/01 01:17:38;;;;;;;11.93;8.75;;;24.60;62.60;;;;;;5034926;28;20032;-71
2021/08/01 01:20:07;;;;;;;10.25;8.48;;;24.60;62.60;;;;;;5034904;28;20053;-72
2021/08/01 01:23:20;;;;;;;10.30;7.40;;;24.60;62.60;;;;;;5034923;28;20527;-73
2021/08/01 01:26:01;;;;;;;11.13;7.78;;;24.60;62.30;;;;;;5020409;28;20464;-73
2021/08/01 01:28:48;;;;;;;11.35;7.32;;;24.50;62.20;;;;;;5034459;28;20030;-74
2021/08/01 01:31:24;;;;;;;11.25;7.50;;;24.50;61.80;;;;;;5034843;28;20030;-73
2021/08/01 01:34:11;;;;;;;14.20;8.18;;;24.60;61.70;;;;;;5034611;28;20383;-73
2021/08/01 01:36:42;;;;;;;10.55;7.15;;;24.60;61.60;;;;;;5034742;28;20025;-73
2021/08/01 01:39:09;;;;;;;11.60;7.63;;;24.60;61.40;;;;;;5034773;28;20021;-73
2021/08/01 01:41:37;;;;;;;11.43;7.10;;;24.60;61.30;;;;;;5033913;28;20165;-71
2021/08/01 01:44:06;;;;;;;10.65;7.43;;;24.60;61.30;;;;;;5034452;28;20104;-70
2021/08/01 01:46:34;;;;;;;8.23;6.88;;;24.60;61.20;;;;;;5034349;28;20029;-71
2021/08/01 01:49:00;;;;;;;10.10;7.78;;;24.60;61.30;;;;;;5034648;28;20030;-72
2021/08/01 01:51:26;;;;;;;10.35;7.20;;;24.60;61.40;;;;;;5034120;28;20122;-72
2021/08/01 01:53:52;;;;;;;10.60;8.13;;;24.50;61.40;;;;;;5034277;28;20103;-71
2021/08/01 01:56:19;;;;;;;13.82;8.50;;;24.60;61.50;;;;;;5034173;28;20022;-72
2021/08/01 01:58:45;;;;;;;21.42;8.70;;;24.50;61.50;;;;;;5034064;28;20036;-72
2021/08/01 02:01:11;;;;;;;9.98;8.02;;;24.50;61.50;;;;;;5033684;28;20029;-71
2021/08/01 02:03:37;;;;;;;15.32;8.60;;;24.50;61.50;;;;;;5034668;28;20440;-72
2021/08/01 02:06:03;;;;;;;15.60;9.20;;;24.50;61.60;;;;;;5033833;28;20022;-71
2021/08/01 02:08:37;;;;;;;19.60;10.98;;;24.50;61.60;;;;;;5033983;28;20064;-73
2021/08/01 02:11:06;;;;;;;19.90;11.85;;;24.50;61.70;;;;;;5033994;28;20049;-71
2021/08/01 02:13:48;;;;;;;26.95;13.93;;;24.50;61.70;;;;;;5033978;28;20446;-71
2021/08/01 02:16:14;;;;;;;39.72;20.17;;;24.50;61.70;;;;;;5034183;28;20375;-71
2021/08/01 02:18:49;;;;;;;29.65;16.50;;;24.50;61.50;;;;;;5034163;28;20105;-71
2021/08/01 02:21:21;;;;;;;47.55;21.17;;;24.50;61.70;;;;;;5033640;28;20037;-71
2021/08/01 02:23:49;;;;;;;49.28;24.08;;;24.50;61.60;;;;;;5033512;28;20384;-71
2021/08/01 02:26:18;;;;;;;40.10;21.00;;;24.50;61.70;;;;;;5032456;28;20559;-71
2021/08/01 02:28:45;;;;;;;28.77;15.75;;;24.50;61.80;;;;;;5033769;28;20372;-71
2021/08/01 02:31:12;;;;;;;29.50;17.15;;;24.50;61.90;;;;;;5034214;28;20036;-72
2021/08/01 02:33:38;;;;;;;27.90;14.95;;;24.50;62.00;;;;;;5033606;28;20021;-71
2021/08/01 02:36:06;;;;;;;24.40;15.02;;;24.50;62.20;;;;;;5032359;28;20030;-72
2021/08/01 02:38:34;;;;;;;31.67;16.85;;;24.50;62.20;;;;;;5033604;28;20094;-71
2021/08/01 02:41:04;;;;;;;26.98;16.42;;;24.50;61.90;;;;;;5033376;28;20040;-71
2021/08/01 02:43:32;;;;;;;23.67;14.43;;;24.50;61.80;;;;;;5033842;28;20040;-71
2021/08/01 02:46:01;;;;;;;24.08;14.50;;;24.60;61.50;;;;;;5033530;28;20021;-71
2021/08/01 02:48:31;;;;;;;17.65;12.75;;;24.60;61.60;;;;;;5033208;28;20036;-71
2021/08/01 02:51:01;;;;;;;17.27;12.70;;;24.60;61.50;;;;;;5033409;28;20049;-71
2021/08/01 02:53:30;;;;;;;18.65;12.57;;;24.60;61.30;;;;;;5034977;28;20044;-71
2021/08/01 02:56:00;;;;;;;15.05;11.00;;;24.60;61.30;;;;;;5038049;28;20126;-71
2021/08/01 02:58:28;;;;;;;23.27;12.15;;;24.60;61.10;;;;;;5037506;28;20113;-71
2021/08/01 03:00:55;;;;;;;17.02;10.65;;;24.70;61.00;;;;;;5037304;28;20044;-71
2021/08/01 03:03:21;;;;;;;20.63;11.13;;;24.70;60.90;;;;;;5038214;28;20052;-71
2021/08/01 03:05:47;;;;;;;24.83;12.43;;;24.70;60.70;;;;;;5037927;28;20026;-71
2021/08/01 03:08:13;;;;;;;19.17;13.88;;;24.80;60.60;;;;;;5037668;28;20117;-71
2021/08/01 03:10:43;;;;;;;20.67;12.15;;;24.80;60.60;;;;;;5037386;28;20072;-71
2021/08/01 03:13:09;;;;;;;18.15;10.35;;;24.80;60.60;;;;;;5037161;28;20025;-71
2021/08/01 03:15:35;;;;;;;20.30;10.80;;;24.80;60.50;;;;;;5037490;28;20036;-71
2021/08/01 03:18:00;;;;;;;15.80;9.95;;;24.90;60.70;;;;;;5037196;28;20021;-71
2021/08/01 03:20:26;;;;;;;15.65;10.05;;;24.80;60.60;;;;;;5037079;28;20064;-71
2021/08/01 03:22:52;;;;;;;14.18;10.13;;;24.90;60.70;;;;;;5037583;28;20463;-71
2021/08/01 03:25:17;;;;;;;15.23;9.60;;;25.00;60.80;;;;;;5036824;28;20472;-72
2021/08/01 03:27:43;;;;;;;13.25;10.38;;;25.10;60.70;;;;;;5036951;28;20417;-71
2021/08/01 03:30:10;;;;;;;12.38;10.20;;;25.20;60.60;;;;;;5036919;28;20041;-71
2021/08/01 03:32:35;;;;;;;18.60;9.98;;;25.20;60.50;;;;;;5036859;28;20024;-71
2021/08/01 03:35:01;;;;;;;16.63;10.15;;;25.30;60.50;;;;;;5037179;28;20025;-71
2021/08/01 03:37:27;;;;;;;11.45;9.00;;;25.30;60.40;;;;;;5036828;28;20534;-72
2021/08/01 03:39:54;;;;;;;12.15;9.55;;;25.40;60.50;;;;;;5036503;28;20026;-71
2021/08/01 03:42:20;;;;;;;13.50;10.13;;;25.40;60.40;;;;;;5036704;28;20071;-72
2021/08/01 03:44:45;;;;;;;12.93;9.15;;;25.40;60.40;;;;;;5036445;28;20405;-71
2021/08/01 03:47:11;;;;;;;12.48;10.20;;;25.50;60.50;;;;;;5036541;28;20060;-71
2021/08/01 03:49:37;;;;;;;13.20;8.93;;;25.60;60.60;;;;;;5036914;28;20026;-71
2021/08/01 03:52:03;;;;;;;11.00;9.23;;;25.60;60.60;;;;;;5036286;28;20029;-71
2021/08/01 03:54:28;;;;;;;13.90;9.35;;;25.60;60.50;;;;;;5036459;28;20560;-71
2021/08/01 03:56:54;;;;;;;11.10;9.63;;;25.70;60.60;;;;;;5036455;28;20057;-71
2021/08/01 03:59:20;;;;;;;12.68;10.05;;;25.70;60.60;;;;;;5036463;28;20037;-71
2021/08/01 04:01:45;;;;;;;11.57;9.38;;;25.80;60.70;;;;;;5036141;28;20069;-72
2021/08/01 04:04:11;;;;;;;11.10;8.90;;;25.80;60.80;;;;;;5034927;28;20029;-71
2021/08/01 04:06:37;;;;;;;14.55;9.57;;;25.80;60.90;;;;;;5036357;28;20068;-71
2021/08/01 04:09:06;;;;;;;12.00;8.75;;;25.80;61.10;;;;;;5036056;28;20021;-71
2021/08/01 04:11:33;;;;;;;12.20;8.85;;;25.90;61.10;;;;;;5036141;28;20029;-73
2021/08/01 04:13:59;;;;;;;12.10;9.38;;;25.90;61.20;;;;;;5036193;28;20029;-71
2021/08/01 04:16:25;;;;;;;13.57;9.50;;;25.90;61.40;;;;;;5036400;28;20034;-71
2021/08/01 04:18:50;;;;;;;11.63;9.13;;;25.90;61.50;;;;;;5036297;28;20356;-71
2021/08/01 04:21:16;;;;;;;15.30;10.10;;;25.90;62.30;;;;;;5036012;28;20029;-72
2021/08/01 04:23:42;;;;;;;12.85;9.45;;;25.90;61.90;;;;;;5035884;28;20033;-71
2021/08/01 04:26:09;;;;;;;12.77;9.40;;;25.90;62.10;;;;;;5035929;28;20030;-71
2021/08/01 04:28:36;;;;;;;13.45;9.93;;;25.90;62.30;;;;;;5035841;28;20025;-71
2021/08/01 04:31:02;;;;;;;12.25;8.93;;;25.90;62.50;;;;;;5035777;28;20419;-71
2021/08/01 04:33:28;;;;;;;11.52;8.80;;;25.90;62.60;;;;;;5035482;28;20033;-72
2021/08/01 04:35:54;;;;;;;14.00;9.38;;;25.90;62.90;;;;;;5035802;28;20100;-72
2021/08/01 04:38:19;;;;;;;14.40;10.38;;;26.00;62.80;;;;;;5036072;28;20068;-72
2021/08/01 04:40:45;;;;;;;14.88;10.25;;;26.00;62.70;;;;;;5036069;28;20060;-71
2021/08/01 04:43:11;;;;;;;13.45;10.02;;;26.10;62.60;;;;;;5035752;28;20036;-73
2021/08/01 04:45:37;;;;;;;12.60;10.25;;;26.10;62.50;;;;;;5035401;28;20391;-72
2021/08/01 04:48:04;;;;;;;12.00;9.63;;;26.10;62.50;;;;;;5035481;28;20021;-71
2021/08/01 04:50:29;;;;;;;17.70;9.82;;;26.20;62.60;;;;;;5034959;28;20388;-71
2021/08/01 04:52:55;;;;;;;12.02;9.52;;;26.20;62.70;;;;;;5035741;28;20060;-72
2021/08/01 04:55:21;;;;;;;13.02;9.50;;;26.30;62.60;;;;;;5035433;28;20050;-72
2021/08/01 04:57:47;;;;;;;15.25;9.93;;;26.40;62.60;;;;;;5035057;28;20065;-72
2021/08/01 05:00:14;;;;;;;15.10;10.00;;;26.40;62.50;;;;;;5035450;28;20444;-72
2021/08/01 05:02:40;;;;;;;12.70;9.75;;;26.50;62.50;;;;;;5035012;28;20064;-72
2021/08/01 05:05:06;;;;;;;16.02;10.30;;;26.70;62.60;;;;;;5035567;28;20452;-72
2021/08/01 05:07:33;;;;;;;12.30;10.10;;;26.80;62.50;;;;;;5034966;28;20451;-72
2021/08/01 05:09:59;;;;;;;13.98;10.23;;;27.00;62.40;;;;;;5035375;28;20353;-72
2021/08/01 05:12:26;;;;;;;17.20;9.95;;;27.10;62.30;;;;;;5035104;28;20029;-73
2021/08/01 05:14:52;;;;;;;11.82;9.52;;;27.20;62.70;;;;;;5035131;28;20387;-72
2021/08/01 05:17:18;;;;;;;12.60;9.55;;;27.30;61.80;;;;;;5034014;28;20030;-73
2021/08/01 05:19:44;;;;;;;13.13;9.48;;;27.40;61.80;;;;;;5034762;28;20033;-72
2021/08/01 05:22:11;;;;;;;12.90;9.50;;;27.50;61.80;;;;;;5035367;28;20055;-72
2021/08/01 05:24:38;;;;;;;12.90;9.23;;;27.60;61.60;;;;;;5034598;28;20025;-71
2021/08/01 05:27:04;;;;;;;15.38;9.50;;;27.70;61.40;;;;;;5034772;28;20029;-71
2021/08/01 05:29:30;;;;;;;11.05;9.48;;;27.70;61.30;;;;;;5034572;28;20029;-72
2021/08/01 05:31:55;;;;;;;12.45;9.82;;;27.80;61.20;;;;;;5033456;28;20034;-74
2021/08/01 05:34:22;;;;;;;12.30;9.38;;;27.90;61.30;;;;;;5034722;28;20053;-72
2021/08/01 05:36:48;;;;;;;13.57;9.75;;;28.00;61.10;;;;;;5034624;28;20025;-71
2021/08/01 05:39:13;;;;;;;14.27;9.63;;;28.10;60.90;;;;;;5034535;28;20076;-72
2021/08/01 05:41:39;;;;;;;14.02;10.10;;;28.20;61.10;;;;;;5034117;28;20046;-72
2021/08/01 05:44:05;;;;;;;11.52;9.88;;;28.30;61.00;;;;;;5034109;28;20022;-72
2021/08/01 05:46:31;;;;;;;16.35;10.90;;;28.40;60.90;;;;;;5034677;28;20032;-72
2021/08/01 05:48:56;;;;;;;13.23;9.65;;;28.40;60.90;;;;;;5034445;28;20021;-72
2021/08/01 05:51:22;;;;;;;15.98;10.57;;;28.50;60.80;;;;;;5034291;28;20029;-71
2021/08/01 05:53:48;;;;;;;14.05;9.93;;;28.60;60.90;;;;;;5034484;28;20475;-71
2021/08/01 05:56:14;;;;;;;14.68;10.82;;;28.70;60.80;;;;;;5034535;28;20026;-71
2021/08/01 05:58:41;;;;;;;14.73;10.07;;;28.90;60.70;;;;;;5034137;28;20030;-72
2021/08/01 06:01:08;;;;;;;12.50;10.25;;;29.10;60.30;;;;;;5033802;28;20033;-72
2021/08/01 06:03:34;;;;;;;15.98;11.00;;;29.20;59.80;;;;;;5034924;28;20056;-72
2021/08/01 06:06:20;;;;;;;12.50;10.25;;;29.40;59.60;;;;;;5034118;28;20030;-72
2021/08/01 06:08:51;;;;;;;12.63;10.13;;;29.60;59.30;;;;;;5034007;28;20026;-72
2021/08/01 06:11:18;;;;;;;18.52;13.60;;;29.90;59.10;;;;;;5034097;28;20483;-72
2021/08/01 06:13:44;;;;;;;17.58;12.93;;;30.20;58.60;;;;;;5034026;28;20018;-72
2021/08/01 06:16:11;;;;;;;21.23;12.95;;;30.30;58.20;;;;;;5033978;28;20072;-72
2021/08/01 06:18:38;;;;;;;20.58;13.07;;;30.40;57.80;;;;;;5033715;28;20434;-71
2021/08/01 06:21:05;;;;;;;20.08;11.57;;;30.60;57.40;;;;;;5033792;28;20121;-72
2021/08/01 06:23:31;;;;;;;26.02;14.75;;;30.70;57.10;;;;;;5033812;28;20109;-72
2021/08/01 06:25:57;;;;;;;37.00;16.45;;;30.80;56.70;;;;;;5033545;28;20100;-72
2021/08/01 06:28:22;;;;;;;16.45;10.70;;;30.80;56.50;;;;;;5033410;28;20109;-73
2021/08/01 06:30:48;;;;;;;14.20;10.65;;;30.70;56.30;;;;;;5033969;28;20036;-72
2021/08/01 06:33:14;;;;;;;14.88;10.52;;;30.70;56.10;;;;;;5033536;28;20025;-72
2021/08/01 06:35:39;;;;;;;12.05;10.57;;;30.60;56.30;;;;;;5033144;28;20079;-71
2021/08/01 06:38:05;;;;;;;14.90;10.70;;;30.60;56.20;;;;;;5033776;28;20026;-72
2021/08/01 06:40:31;;;;;;;14.75;10.35;;;30.60;56.30;;;;;;5033974;28;20083;-72
2021/08/01 06:42:56;;;;;;;14.98;10.77;;;30.60;56.20;;;;;;5033443;28;20382;-72
2021/08/01 06:45:22;;;;;;;14.05;9.40;;;30.60;56.10;;;;;;5033752;28;20463;-72
2021/08/01 06:47:48;;;;;;;13.65;10.02;;;30.50;55.30;;;;;;5033594;28;20045;-72
2021/08/01 06:50:13;;;;;;;11.15;9.68;;;30.60;55.50;;;;;;5033166;28;20026;-73
2021/08/01 06:52:39;;;;;;;12.85;9.82;;;30.70;55.60;;;;;;5033227;28;20026;-72
2021/08/01 06:55:05;;;;;;;11.13;9.68;;;30.70;55.40;;;;;;5033155;28;20383;-73
2021/08/01 06:57:31;;;;;;;11.10;9.90;;;30.70;55.40;;;;;;5033608;28;20468;-73
2021/08/01 06:59:57;;;;;;;17.88;10.73;;;30.90;55.40;;;;;;5033844;28;20034;-73
2021/08/01 07:02:22;;;;;;;13.98;8.93;;;31.00;55.50;;;;;;5033818;28;20089;-73
2021/08/01 07:04:48;;;;;;;12.68;8.95;;;31.00;55.40;;;;;;5033939;28;20371;-72
2021/08/01 07:07:14;;;;;;;13.60;9.02;;;31.00;55.20;;;;;;5033669;28;20104;-73
2021/08/01 07:09:40;;;;;;;13.52;8.82;;;31.00;55.30;;;;;;5034367;28;20036;-73
2021/08/01 07:12:09;;;;;;;10.48;9.15;;;31.10;55.10;;;;;;5034047;28;20089;-73
2021/08/01 07:14:35;;;;;;;13.63;9.70;;;31.10;54.50;;;;;;5037063;28;20028;-73
2021/08/01 07:17:01;;;;;;;14.65;9.52;;;31.10;54.30;;;;;;5033750;28;20065;-73
2021/08/01 07:19:27;;;;;;;11.60;8.40;;;31.20;54.20;;;;;;5033138;28;20053;-73
2021/08/01 07:21:53;;;;;;;12.90;7.68;;;31.30;54.40;;;;;;5033232;28;20037;-73
2021/08/01 07:24:19;;;;;;;8.88;7.45;;;31.30;53.50;;;;;;5033191;28;20026;-73
2021/08/01 07:26:47;;;;;;;9.77;8.18;;;31.40;53.60;;;;;;5032778;28;20125;-73
2021/08/01 07:29:13;;;;;;;10.43;8.13;;;31.40;53.40;;;;;;5033168;28;20377;-72
2021/08/01 07:31:39;;;;;;;12.65;8.68;;;31.50;53.10;;;;;;5032498;28;20032;-73
2021/08/01 07:34:05;;;;;;;13.02;8.10;;;31.50;53.20;;;;;;5032852;28;20384;-73
2021/08/01 07:36:30;;;;;;;10.73;8.00;;;31.40;53.20;;;;;;5032776;28;20025;-73
2021/08/01 07:38:56;;;;;;;10.80;7.85;;;31.40;53.30;;;;;;5033116;28;20499;-74
2021/08/01 07:41:22;;;;;;;12.13;7.97;;;31.60;53.50;;;;;;5035612;28;20076;-74
2021/08/01 07:43:50;;;;;;;9.07;7.95;;;31.60;53.30;;;;;;5036487;28;20510;-72
2021/08/01 07:46:17;;;;;;;8.48;7.50;;;31.70;53.30;;;;;;5036973;28;20109;-73
2021/08/01 07:48:43;;;;;;;9.23;7.60;;;31.80;53.00;;;;;;5036922;28;20040;-72
2021/08/01 07:51:08;;;;;;;9.85;6.82;;;31.80;52.40;;;;;;5036601;28;20056;-72
2021/08/01 07:53:34;;;;;;;13.18;6.88;;;31.80;52.50;;;;;;5036231;28;20033;-72
2021/08/01 07:56:00;;;;;;;11.70;6.57;;;31.90;52.10;;;;;;5036905;28;20028;-73
2021/08/01 07:58:25;;;;;;;10.60;6.97;;;31.90;51.50;;;;;;5036319;28;20435;-72
2021/08/01 08:00:51;;;;;;;11.02;6.82;;;31.90;51.40;;;;;;5036025;28;20029;-72
2021/08/01 08:03:17;;;;;;;10.05;7.20;;;32.00;51.00;;;;;;5036405;28;20111;-73
2021/08/01 08:05:43;;;;;;;10.07;6.97;;;32.00;50.70;;;;;;5036340;28;20072;-73
2021/08/01 08:08:09;;;;;;;10.32;6.78;;;32.10;50.70;;;;;;5036384;28;20481;-72
2021/08/01 08:10:36;;;;;;;9.20;7.10;;;32.20;50.00;;;;;;5036302;28;20025;-72
2021/08/01 08:13:02;;;;;;;7.35;6.63;;;32.30;49.90;;;;;;5036279;28;20048;-73
2021/08/01 08:15:32;;;;;;;7.55;6.55;;;32.30;49.90;;;;;;5036089;28;20160;-73
2021/08/01 08:17:59;;;;;;;10.93;7.32;;;32.50;50.30;;;;;;5035348;28;20057;-73
2021/08/01 08:20:25;;;;;;;10.88;6.55;;;32.60;50.00;;;;;;5036134;28;20025;-74
2021/08/01 08:22:51;;;;;;;7.78;6.40;;;32.70;49.80;;;;;;5034499;28;20179;-73
2021/08/01 08:25:16;;;;;;;10.95;6.75;;;32.90;49.60;;;;;;5035750;28;20061;-72
2021/08/01 08:27:42;;;;;;;9.50;6.00;;;32.90;49.00;;;;;;5035584;28;20357;-73
2021/08/01 08:30:09;;;;;;;10.07;6.45;;;33.00;48.60;;;;;;5035659;28;20030;-73
2021/08/01 08:32:35;;;;;;;8.60;6.55;;;33.10;48.70;;;;;;5035663;28;20177;-72
2021/08/01 08:35:02;;;;;;;9.20;6.65;;;33.30;48.60;;;;;;5035167;28;20127;-72
2021/08/01 08:37:28;;;;;;;7.68;6.40;;;33.40;48.10;;;;;;5035567;28;20021;-72
2021/08/01 08:39:54;;;;;;;9.20;6.32;;;33.50;47.90;;;;;;5036257;28;20029;-72
2021/08/01 08:42:20;;;;;;;7.80;6.88;;;33.60;47.50;;;;;;5035282;28;20467;-72
2021/08/01 08:44:46;;;;;;;10.77;6.32;;;33.70;47.30;;;;;;5035412;28;20033;-73
2021/08/01 08:47:17;;;;;;;10.07;6.78;;;33.80;46.90;;;;;;5035555;28;20026;-72
2021/08/01 08:49:49;;;;;;;7.82;6.15;;;33.80;46.90;;;;;;5035398;28;20018;-72
2021/08/01 08:52:16;;;;;;;7.72;6.25;;;33.80;46.90;;;;;;5035112;28;20033;-72
2021/08/01 08:54:48;;;;;;;8.90;6.32;;;33.90;46.50;;;;;;5035210;28;20083;-73
2021/08/01 08:57:29;;;;;;;10.00;6.55;;;34.00;46.30;;;;;;5035179;28;20033;-72
2021/08/01 09:00:04;;;;;;;9.70;7.05;;;34.10;46.60;;;;;;5035626;28;20018;-72
2021/08/01 09:02:30;;;;;;;9.45;6.57;;;34.20;46.70;;;;;;5033135;28;20439;-73
2021/08/01 09:04:57;;;;;;;10.07;5.97;;;34.40;46.50;;;;;;5033709;28;20037;-72
2021/08/01 09:07:23;;;;;;;8.65;6.32;;;34.50;45.80;;;;;;5035030;28;20030;-73
2021/08/01 09:09:49;;;;;;;9.18;6.25;;;34.60;45.60;;;;;;5034742;28;20028;-73
2021/08/01 09:12:15;;;;;;;6.93;6.28;;;34.70;45.20;;;;;;5034948;28;20033;-72
2021/08/01 09:14:41;;;;;;;7.05;6.00;;;34.90;45.50;;;;;;5034275;28;20108;-73
2021/08/01 09:17:06;;;;;;;10.07;6.72;;;35.10;46.20;;;;;;5035125;28;20029;-74
2021/08/01 09:19:37;;;;;;;11.18;6.32;;;35.40;45.50;;;;;;5034630;28;20026;-73
2021/08/01 09:22:29;;;;;;;13.27;7.10;;;35.60;44.90;;;;;;5034232;28;20033;-73
2021/08/01 09:24:55;;;;;;;7.53;6.57;;;35.80;44.30;;;;;;5032239;28;20131;-72
2021/08/01 09:27:32;;;;;;;13.05;6.80;;;36.00;44.60;;;;;;5034737;28;20460;-72
2021/08/01 09:29:59;;;;;;;9.50;7.15;;;36.30;44.60;;;;;;5034238;28;20021;-73
2021/08/01 09:32:29;;;;;;;7.43;6.50;;;36.50;44.30;;;;;;5034436;28;20353;-72
2021/08/01 09:34:55;;;;;;;10.23;6.95;;;36.70;44.20;;;;;;5034488;28;20022;-72
2021/08/01 09:37:33;;;;;;;9.15;6.50;;;36.90;43.90;;;;;;5034686;28;20029;-73
2021/08/01 09:40:11;;;;;;;10.35;6.00;;;37.00;42.90;;;;;;5034578;28;20033;-74
2021/08/01 09:42:45;;;;;;;9.50;6.05;;;37.10;42.20;;;;;;5033751;28;20654;-73
2021/08/01 09:45:19;;;;;;;9.05;6.10;;;37.20;41.10;;;;;;5034607;28;20077;-74
2021/08/01 09:47:47;;;;;;;6.97;6.30;;;37.30;41.00;;;;;;5034168;28;20131;-73
2021/08/01 09:50:14;;;;;;;8.98;6.03;;;37.30;41.20;;;;;;5034234;28;20038;-73
2021/08/01 09:52:41;;;;;;;10.02;6.25;;;37.40;41.20;;;;;;5034183;28;20035;-73
2021/08/01 09:55:16;;;;;;;11.60;6.35;;;37.40;41.30;;;;;;5033836;28;20537;-73
2021/08/01 09:57:52;;;;;;;8.65;5.88;;;37.50;41.70;;;;;;5034462;28;20025;-73
2021/08/01 10:00:20;;;;;;;8.60;6.30;;;37.70;41.30;;;;;;5034516;28;20025;-72
2021/08/01 10:02:47;;;;;;;8.30;5.93;;;38.00;41.00;;;;;;5033483;28;20097;-75
2021/08/01 10:05:22;;;;;;;8.00;6.28;;;38.10;40.90;;;;;;5033910;28;20030;-72
2021/08/01 10:07:51;;;;;;;7.70;5.97;;;38.20;40.70;;;;;;5033658;28;20475;-73
2021/08/01 10:10:17;;;;;;;9.23;5.90;;;38.10;40.20;;;;;;5033924;28;20379;-73
2021/08/01 10:12:47;;;;;;;7.43;5.28;;;38.10;40.30;;;;;;5033935;28;20026;-72
2021/08/01 10:15:14;;;;;;;7.88;5.03;;;38.20;39.90;;;;;;5033879;28;20365;-73
2021/08/01 10:17:40;;;;;;;8.77;5.20;;;38.30;40.40;;;;;;5033109;28;20543;-73
2021/08/01 10:20:07;;;;;;;6.68;5.10;;;38.40;39.00;;;;;;5033329;28;20021;-73
2021/08/01 10:22:38;;;;;;;6.30;5.13;;;38.30;38.70;;;;;;5033133;28;20037;-73
2021/08/01 10:25:10;;;;;;;9.80;5.32;;;38.30;39.00;;;;;;5033496;28;20112;-72
2021/08/01 10:27:43;;;;;;;6.03;5.28;;;38.50;38.90;;;;;;5032557;28;20444;-73
2021/08/01 10:30:10;;;;;;;7.85;5.25;;;38.60;38.80;;;;;;5033066;28;20029;-72
2021/08/01 10:32:42;;;;;;;8.43;5.43;;;38.80;38.60;;;;;;5033348;28;20049;-73
2021/08/01 10:35:14;;;;;;;5.27;4.77;;;39.00;38.10;;;;;;5033147;28;20025;-73
2021/08/01 10:37:51;;;;;;;5.60;4.97;;;39.10;38.10;;;;;;5033321;28;20053;-73
2021/08/01 10:40:23;;;;;;;7.63;5.32;;;39.20;38.30;;;;;;5033417;28;20028;-73
2021/08/01 10:42:55;;;;;;;11.98;5.93;;;39.20;38.60;;;;;;5033208;28;20038;-72
2021/08/01 10:45:21;;;;;;;10.23;6.38;;;39.20;38.70;;;;;;5033245;28;20036;-72
2021/08/01 10:47:51;;;;;;;6.55;5.60;;;39.00;38.90;;;;;;5032985;28;20066;-72
2021/08/01 10:50:22;;;;;;;8.98;5.57;;;38.70;39.30;;;;;;5033036;28;20021;-72
2021/08/01 10:52:48;;;;;;;8.77;5.75;;;38.50;39.80;;;;;;5031638;28;20112;-72
2021/08/01 10:55:22;;;;;;;6.78;5.90;;;38.50;39.80;;;;;;5033012;28;20109;-72
2021/08/01 10:58:12;;;;;;;11.15;6.25;;;38.80;40.20;;;;;;5032869;28;20025;-72
2021/08/01 11:01:00;;;;;;;8.40;6.30;;;39.20;39.90;;;;;;5033101;28;20413;-72
2021/08/01 11:03:26;;;;;;;8.30;6.15;;;39.50;39.80;;;;;;5033583;28;20141;-73
2021/08/01 11:05:52;;;;;;;9.57;6.88;;;39.50;39.90;;;;;;5032996;28;20036;-73
2021/08/01 11:08:18;;;;;;;6.85;6.18;;;39.70;40.10;;;;;;5033128;28;20406;-72
2021/08/01 11:10:45;;;;;;;5.90;5.30;;;39.90;40.10;;;;;;5033051;28;20033;-73
2021/08/01 11:13:29;;;;;;;6.82;5.75;;;40.20;39.20;;;;;;5033197;28;20021;-74
2021/08/01 11:15:55;;;;;;;7.63;5.75;;;40.20;38.20;;;;;;5034898;28;20486;-73
2021/08/01 11:18:33;;;;;;;7.85;5.75;;;40.20;38.00;;;;;;5037266;28;20030;-73
2021/08/01 11:21:03;;;;;;;8.45;5.93;;;40.30;38.30;;;;;;5036584;28;20048;-73
2021/08/01 11:23:52;;;;;;;9.82;5.65;;;40.30;38.10;;;;;;5036925;28;20033;-73
2021/08/01 11:26:19;;;;;;;15.55;6.63;;;40.50;38.20;;;;;;5027303;28;20476;-73
2021/08/01 11:28:48;;;;;;;9.50;6.07;;;40.70;38.30;;;;;;5037044;28;20033;-73
2021/08/01 11:31:21;;;;;;;9.98;6.00;;;40.90;38.30;;;;;;5036897;28;20061;-73
2021/08/01 11:33:49;;;;;;;9.95;6.47;;;40.90;38.10;;;;;;5036556;28;20132;-73
2021/08/01 11:36:17;;;;;;;6.55;5.65;;;41.10;38.10;;;;;;5036432;28;20025;-73
2021/08/01 11:38:52;;;;;;;8.00;6.10;;;41.10;38.00;;;;;;5036643;28;20017;-73
2021/08/01 11:41:39;;;;;;;12.32;6.03;;;41.20;38.00;;;;;;5036251;28;20041;-73
2021/08/01 11:44:16;;;;;;;10.07;5.75;;;41.30;37.90;;;;;;5036413;28;20022;-73
2021/08/01 11:46:59;;;;;;;6.93;6.30;;;41.60;37.70;;;;;;5036892;28;20087;-73
2021/08/01 11:49:27;;;;;;;8.98;6.30;;;41.70;37.50;;;;;;5035659;28;20032;-73
2021/08/01 11:51:56;;;;;;;8.25;5.68;;;41.80;38.10;;;;;;5036182;28;20028;-73
2021/08/01 11:54:27;;;;;;;8.77;5.88;;;42.00;37.40;;;;;;5036733;28;20039;-72
2021/08/01 11:56:56;;;;;;;6.93;5.90;;;42.30;37.50;;;;;;5035144;28;20391;-73
2021/08/01 11:59:23;;;;;;;6.35;5.60;;;42.50;37.60;;;;;;5019057;28;20032;-74
2021/08/01 12:01:50;;;;;;;7.30;5.88;;;42.80;36.90;;;;;;5035805;28;20060;-74
2021/08/01 12:04:16;;;;;;;8.75;5.90;;;42.90;36.90;;;;;;5036648;28;20029;-74
2021/08/01 12:06:43;;;;;;;8.55;5.78;;;43.00;36.30;;;;;;5036443;28;20352;-74
2021/08/01 12:09:23;;;;;;;6.15;5.55;;;43.00;36.10;;;;;;5036319;28;20025;-74
2021/08/01 12:11:57;;;;;;;7.72;5.25;;;43.10;35.90;;;;;;5036242;28;20431;-73
2021/08/01 12:14:31;;;;;;;6.45;5.80;;;43.20;35.50;;;;;;5035928;28;20022;-73
2021/08/01 12:17:12;;;;;;;5.93;5.30;;;43.20;35.30;;;;;;5036281;28;20083;-74
2021/08/01 12:19:40;;;;;;;10.35;5.93;;;43.30;35.30;;;;;;5036183;28;20057;-74
2021/08/01 12:22:14;;;;;;;8.40;5.40;;;43.40;35.30;;;;;;5035572;28;20551;-74
2021/08/01 12:24:41;;;;;;;6.22;5.45;;;43.50;35.10;;;;;;5036152;28;20075;-74
2021/08/01 12:27:17;;;;;;;7.00;5.40;;;43.60;34.80;;;;;;5035325;28;20112;-74
2021/08/01 12:29:55;;;;;;;6.75;5.85;;;43.60;34.80;;;;;;5036273;28;20022;-74
2021/08/01 12:32:24;;;;;;;7.28;5.57;;;43.80;34.70;;;;;;5035687;28;20029;-74
2021/08/01 12:35:01;;;;;;;7.40;5.15;;;43.90;34.50;;;;;;5035688;28;20044;-73
2021/08/01 12:37:38;;;;;;;5.72;5.00;;;43.90;34.30;;;;;;5035624;28;20176;-74
2021/08/01 12:40:05;;;;;;;9.20;5.03;;;44.00;34.00;;;;;;5035420;28;20100;-73
2021/08/01 12:42:30;;;;;;;10.55;5.30;;;44.20;34.10;;;;;;5035654;28;20055;-73
2021/08/01 12:45:00;;;;;;;7.32;5.28;;;44.30;34.00;;;;;;5035884;28;20551;-72